CSN8848 ZUUU-ZBAD
Flight info
| Callsign | CSN8848 |
|---|---|
| Flight time | N/A |
| Altitude | 37100 |
| Route | GURET9W GURET W233 AGULU W81 NSH G212 BELAX BELAX6M |
| Aircraft | A320/M-SDE3FGHIRWY/LB1 |
Departure
| Time | 2026-05-07 20:31 |
|---|---|
| Airport | Chengdu Shuangliu International Airport (ZUUU) |
Arrival
| Time | N/A |
|---|---|
| Airport | Beijing Daxing International Airport (ZBAD) |
| Time | Latitude | Longitude | Altitude | Speed | Heading |
|---|---|---|---|---|---|
| 2026-05-07 18:51 | 30.57271 | 103.95031 | 1647 ft | 0 kts | 81° |
| 2026-05-07 19:54 | 30.57270 | 103.95025 | 1647 ft | 4 kts | 81° |
| 2026-05-07 19:54 | 30.57266 | 103.94994 | 1647 ft | 4 kts | 81° |
| 2026-05-07 19:55 | 30.57262 | 103.94963 | 1647 ft | 4 kts | 81° |
| 2026-05-07 19:55 | 30.57258 | 103.94932 | 1647 ft | 4 kts | 81° |
| 2026-05-07 19:55 | 30.57255 | 103.94904 | 1647 ft | 4 kts | 89° |
| 2026-05-07 19:55 | 30.57259 | 103.94874 | 1647 ft | 4 kts | 121° |
| 2026-05-07 19:56 | 30.57277 | 103.94854 | 1647 ft | 4 kts | 162° |
| 2026-05-07 19:56 | 30.57303 | 103.94850 | 1647 ft | 4 kts | 184° |
| 2026-05-07 19:56 | 30.57330 | 103.94854 | 1647 ft | 4 kts | 195° |
| 2026-05-07 19:56 | 30.57356 | 103.94864 | 1647 ft | 4 kts | 201° |
| 2026-05-07 19:57 | 30.57361 | 103.94866 | 1647 ft | 0 kts | 201° |
| 2026-05-07 20:00 | 30.57343 | 103.94859 | 1647 ft | 4 kts | 198° |
| 2026-05-07 20:00 | 30.57317 | 103.94851 | 1647 ft | 4 kts | 191° |
| 2026-05-07 20:00 | 30.57290 | 103.94850 | 1647 ft | 4 kts | 176° |
| 2026-05-07 20:00 | 30.57267 | 103.94862 | 1647 ft | 4 kts | 144° |
| 2026-05-07 20:01 | 30.57255 | 103.94888 | 1647 ft | 4 kts | 103° |
| 2026-05-07 20:01 | 30.57257 | 103.94918 | 1647 ft | 3 kts | 81° |
| 2026-05-07 20:01 | 30.57260 | 103.94947 | 1647 ft | 4 kts | 81° |
| 2026-05-07 20:01 | 30.57264 | 103.94978 | 1647 ft | 4 kts | 81° |
| 2026-05-07 20:02 | 30.57268 | 103.95009 | 1647 ft | 4 kts | 81° |
| 2026-05-07 20:02 | 30.57270 | 103.95028 | 1647 ft | 0 kts | 81° |
| 2026-05-07 20:14 | 30.57269 | 103.95019 | 1647 ft | 4 kts | 81° |
| 2026-05-07 20:14 | 30.57265 | 103.94989 | 1647 ft | 4 kts | 81° |
| 2026-05-07 20:14 | 30.57261 | 103.94958 | 1647 ft | 4 kts | 82° |
| 2026-05-07 20:14 | 30.57257 | 103.94927 | 1647 ft | 4 kts | 84° |
| 2026-05-07 20:15 | 30.57256 | 103.94896 | 1647 ft | 4 kts | 98° |
| 2026-05-07 20:15 | 30.57263 | 103.94870 | 1647 ft | 4 kts | 120° |
| 2026-05-07 20:15 | 30.57280 | 103.94848 | 1647 ft | 4 kts | 161° |
| 2026-05-07 20:15 | 30.57305 | 103.94846 | 1647 ft | 4 kts | 197° |
| 2026-05-07 20:16 | 30.57322 | 103.94853 | 1647 ft | 0 kts | 202° |
| 2026-05-07 20:24 | 30.57313 | 103.94849 | 1647 ft | 2 kts | 202° |
| 2026-05-07 20:25 | 30.57296 | 103.94841 | 1647 ft | 1 kts | 202° |
| 2026-05-07 20:25 | 30.57291 | 103.94834 | 1647 ft | 2 kts | 231° |
| 2026-05-07 20:25 | 30.57298 | 103.94768 | 1647 ft | 11 kts | 289° |
| 2026-05-07 20:26 | 30.57302 | 103.94674 | 1647 ft | 13 kts | 244° |
| 2026-05-07 20:26 | 30.57217 | 103.94622 | 1647 ft | 16 kts | 201° |
| 2026-05-07 20:26 | 30.57109 | 103.94573 | 1647 ft | 17 kts | 202° |
| 2026-05-07 20:26 | 30.56993 | 103.94517 | 1647 ft | 19 kts | 202° |
| 2026-05-07 20:27 | 30.56865 | 103.94457 | 1647 ft | 21 kts | 202° |
| 2026-05-07 20:27 | 30.56728 | 103.94392 | 1647 ft | 22 kts | 198° |
| 2026-05-07 20:27 | 30.56581 | 103.94324 | 1647 ft | 24 kts | 202° |
| 2026-05-07 20:27 | 30.56424 | 103.94250 | 1648 ft | 25 kts | 202° |
| 2026-05-07 20:28 | 30.56306 | 103.94177 | 1647 ft | 12 kts | 241° |
| 2026-05-07 20:28 | 30.56313 | 103.94117 | 1647 ft | 0 kts | 294° |
| 2026-05-07 20:29 | 30.56314 | 103.94114 | 1647 ft | 1 kts | 294° |
| 2026-05-07 20:29 | 30.56320 | 103.94098 | 1647 ft | 3 kts | 294° |
| 2026-05-07 20:29 | 30.56332 | 103.94068 | 1647 ft | 5 kts | 294° |
| 2026-05-07 20:29 | 30.56350 | 103.94022 | 1647 ft | 7 kts | 299° |
| 2026-05-07 20:30 | 30.56386 | 103.94022 | 1647 ft | 0 kts | 25° |
| 2026-05-07 20:30 | 30.56386 | 103.94023 | 1647 ft | 0 kts | 25° |
| 2026-05-07 20:30 | 30.56437 | 103.94049 | 1648 ft | 30 kts | 24° |
| 2026-05-07 20:31 | 30.56853 | 103.94240 | 1648 ft | 95 kts | 21° |
| 2026-05-07 20:31 | 30.57635 | 103.94600 | 1646 ft | 144 kts | 22° |
| 2026-05-07 20:31 | 30.58680 | 103.95082 | 1780 ft | 171 kts | 21° |
| 2026-05-07 20:31 | 30.59767 | 103.95589 | 2445 ft | 170 kts | 22° |
| 2026-05-07 20:32 | 30.60855 | 103.96116 | 3099 ft | 173 kts | 23° |
| 2026-05-07 20:32 | 30.61966 | 103.96648 | 3487 ft | 188 kts | 22° |
| 2026-05-07 20:32 | 30.63270 | 103.97247 | 3809 ft | 211 kts | 22° |
| 2026-05-07 20:32 | 30.64697 | 103.97905 | 4190 ft | 230 kts | 22° |
| 2026-05-07 20:33 | 30.66256 | 103.98625 | 4605 ft | 252 kts | 22° |
| 2026-05-07 20:33 | 30.67925 | 103.99446 | 5244 ft | 265 kts | 30° |
| 2026-05-07 20:33 | 30.69278 | 104.00894 | 6096 ft | 268 kts | 53° |
| 2026-05-07 20:33 | 30.70296 | 104.02715 | 7049 ft | 270 kts | 60° |
| 2026-05-07 20:34 | 30.71193 | 104.04650 | 7931 ft | 273 kts | 62° |
| 2026-05-07 20:34 | 30.72073 | 104.06629 | 8764 ft | 277 kts | 62° |
| 2026-05-07 20:34 | 30.72976 | 104.08628 | 9582 ft | 282 kts | 61° |
| 2026-05-07 20:34 | 30.73920 | 104.10643 | 10345 ft | 288 kts | 60° |
| 2026-05-07 20:35 | 30.74922 | 104.12716 | 10687 ft | 309 kts | 60° |
| 2026-05-07 20:35 | 30.76140 | 104.14836 | 10938 ft | 328 kts | 46° |
| 2026-05-07 20:35 | 30.77972 | 104.16470 | 11485 ft | 337 kts | 30° |
| 2026-05-07 20:35 | 30.80028 | 104.17833 | 12120 ft | 344 kts | 29° |
| 2026-05-07 20:36 | 30.82104 | 104.19202 | 12772 ft | 350 kts | 29° |
| 2026-05-07 20:36 | 30.84266 | 104.20627 | 13444 ft | 356 kts | 29° |
| 2026-05-07 20:36 | 30.86441 | 104.22065 | 14079 ft | 362 kts | 29° |
| 2026-05-07 20:36 | 30.88648 | 104.23528 | 14665 ft | 368 kts | 29° |
| 2026-05-07 20:37 | 30.90889 | 104.25014 | 15239 ft | 373 kts | 28° |
| 2026-05-07 20:37 | 30.93053 | 104.26731 | 15787 ft | 380 kts | 39° |
| 2026-05-07 20:37 | 30.94929 | 104.28937 | 16338 ft | 388 kts | 50° |
| 2026-05-07 20:37 | 30.96626 | 104.31408 | 16874 ft | 394 kts | 50° |
| 2026-05-07 20:38 | 30.98354 | 104.33917 | 17399 ft | 400 kts | 49° |
| 2026-05-07 20:38 | 31.00107 | 104.36453 | 17910 ft | 406 kts | 49° |
| 2026-05-07 20:38 | 31.01894 | 104.39035 | 18418 ft | 411 kts | 48° |
| 2026-05-07 20:38 | 31.03672 | 104.41604 | 18855 ft | 416 kts | 48° |
| 2026-05-07 20:39 | 31.05499 | 104.44247 | 19355 ft | 420 kts | 49° |
| 2026-05-07 20:39 | 31.07336 | 104.46916 | 19874 ft | 423 kts | 49° |
| 2026-05-07 20:39 | 31.09182 | 104.49599 | 20415 ft | 425 kts | 49° |
| 2026-05-07 20:39 | 31.11032 | 104.52307 | 20953 ft | 429 kts | 51° |
| 2026-05-07 20:40 | 31.12622 | 104.55283 | 21448 ft | 435 kts | 62° |
| 2026-05-07 20:40 | 31.13741 | 104.58569 | 21955 ft | 439 kts | 73° |
| 2026-05-07 20:40 | 31.14362 | 104.62065 | 22442 ft | 442 kts | 82° |
| 2026-05-07 20:40 | 31.14792 | 104.65622 | 22943 ft | 444 kts | 82° |
| 2026-05-07 20:41 | 31.15234 | 104.69207 | 23449 ft | 447 kts | 82° |
| 2026-05-07 20:41 | 31.15683 | 104.72804 | 23916 ft | 450 kts | 81° |
| 2026-05-07 20:41 | 31.16139 | 104.76433 | 24311 ft | 453 kts | 82° |
| 2026-05-07 20:41 | 31.16596 | 104.80087 | 24707 ft | 457 kts | 82° |
| 2026-05-07 20:42 | 31.17048 | 104.83724 | 25095 ft | 460 kts | 82° |
| 2026-05-07 20:42 | 31.17508 | 104.87429 | 25484 ft | 463 kts | 82° |
| 2026-05-07 20:42 | 31.17970 | 104.91169 | 25864 ft | 467 kts | 82° |
| 2026-05-07 20:42 | 31.18433 | 104.94934 | 26278 ft | 470 kts | 82° |
| 2026-05-07 20:43 | 31.18897 | 104.98726 | 26670 ft | 474 kts | 82° |
| 2026-05-07 20:43 | 31.19362 | 105.02551 | 27050 ft | 477 kts | 82° |
| 2026-05-07 20:43 | 31.19826 | 105.06400 | 27442 ft | 481 kts | 82° |
| 2026-05-07 20:43 | 31.20295 | 105.10286 | 27834 ft | 484 kts | 82° |
| 2026-05-07 20:44 | 31.20765 | 105.14196 | 28228 ft | 488 kts | 82° |
| 2026-05-07 20:44 | 31.21236 | 105.18133 | 28618 ft | 491 kts | 82° |
| 2026-05-07 20:44 | 31.21708 | 105.22100 | 29014 ft | 495 kts | 82° |
| 2026-05-07 20:44 | 31.22184 | 105.26098 | 29306 ft | 498 kts | 82° |
| 2026-05-07 20:45 | 31.22672 | 105.30104 | 29372 ft | 499 kts | 80° |
| 2026-05-07 20:45 | 31.24785 | 105.37782 | 29368 ft | 497 kts | 62° |
| 2026-05-07 20:46 | 31.28429 | 105.44587 | 29366 ft | 494 kts | 53° |
| 2026-05-07 20:46 | 31.32268 | 105.51289 | 29881 ft | 499 kts | 53° |
| 2026-05-07 20:46 | 31.34201 | 105.54679 | 30262 ft | 502 kts | 53° |
| 2026-05-07 20:47 | 31.36140 | 105.58081 | 30579 ft | 505 kts | 53° |
| 2026-05-07 20:47 | 31.38095 | 105.61511 | 30974 ft | 505 kts | 53° |
| 2026-05-07 20:47 | 31.40043 | 105.64929 | 31394 ft | 505 kts | 53° |
| 2026-05-07 20:47 | 31.41996 | 105.68357 | 31787 ft | 506 kts | 53° |
| 2026-05-07 20:48 | 31.43923 | 105.71737 | 32195 ft | 507 kts | 53° |
| 2026-05-07 20:48 | 31.45905 | 105.75219 | 32610 ft | 507 kts | 53° |
| 2026-05-07 20:48 | 31.47835 | 105.78617 | 32997 ft | 508 kts | 53° |
| 2026-05-07 20:48 | 31.49792 | 105.82068 | 33397 ft | 509 kts | 53° |
| 2026-05-07 20:49 | 31.51751 | 105.85527 | 33786 ft | 510 kts | 53° |
| 2026-05-07 20:49 | 31.53713 | 105.88990 | 34199 ft | 510 kts | 53° |
| 2026-05-07 20:49 | 31.55673 | 105.92455 | 34556 ft | 510 kts | 53° |
| 2026-05-07 20:49 | 31.57634 | 105.95922 | 34896 ft | 511 kts | 53° |
| 2026-05-07 20:50 | 31.58937 | 105.98226 | 35109 ft | 511 kts | 53° |